Terminal Aerodrome Forecast
Issued by NWS Cleveland, OH

Home | Current Version | Previous Version | Text Only | Print | Product List | Glossary Off
Versions: 1 2 3 4 5 6 7 8 9 10 11 12 13 14 15 16 17 18 19 20 21

000
FTUS41 KCLE 272336
TAFERI
TAF
KERI 272336Z 2800/2824 14016G28KT P6SM VCSH SCT025 OVC080
      TEMPO 2800/2804 3SM TSRA BR OVC025CB
     FM280400 14012G22KT P6SM VCSH BKN025 OVC045
     FM280600 12012KT 5SM -RA BR OVC012
     FM281000 04006KT 3SM -RA BR OVC006
     FM281400 35012KT 2SM -RA BR OVC008=

USA.gov is the U.S. government's official web portal to all federal, state and local government web resources and services.